createdAt,value
2022-10-18T00:00:03.699Z,13.31
2022-10-18T00:01:03.707Z,13.31
2022-10-18T00:02:03.783Z,13.31
2022-10-18T00:03:03.723Z,13.31
2022-10-18T00:04:03.731Z,13.30
2022-10-18T00:05:03.739Z,13.29
2022-10-18T00:06:03.750Z,13.27
2022-10-18T00:07:03.761Z,13.26
2022-10-18T00:08:03.766Z,13.26
2022-10-18T00:09:03.773Z,13.26
2022-10-18T00:10:03.785Z,13.24
2022-10-18T00:11:03.791Z,13.26
2022-10-18T00:12:03.799Z,13.26
2022-10-18T00:13:03.809Z,13.25
2022-10-18T00:14:03.814Z,13.24
2022-10-18T00:15:03.820Z,13.24
2022-10-18T00:16:03.828Z,13.23
2022-10-18T00:17:03.838Z,13.23
2022-10-18T00:18:03.843Z,13.23
2022-10-18T00:19:03.853Z,13.23
2022-10-18T00:20:03.864Z,13.23
2022-10-18T00:21:03.866Z,13.23
2022-10-18T00:22:03.888Z,13.20
2022-10-18T00:23:03.883Z,13.19
2022-10-18T00:24:03.892Z,13.16
2022-10-18T00:25:03.901Z,13.15
2022-10-18T00:26:03.909Z,13.13
2022-10-18T00:27:03.920Z,13.13
2022-10-18T00:28:03.927Z,13.12
2022-10-18T00:29:04.024Z,13.09
2022-10-18T00:30:03.949Z,13.11
2022-10-18T00:31:03.959Z,13.10
2022-10-18T00:32:03.970Z,13.12
2022-10-18T00:33:03.979Z,13.11
2022-10-18T00:34:03.987Z,13.09
2022-10-18T00:35:03.992Z,13.09
2022-10-18T00:36:04.003Z,13.10
2022-10-18T00:37:04.015Z,13.07
2022-10-18T00:38:04.020Z,13.08
2022-10-18T00:39:04.027Z,13.06
2022-10-18T00:40:04.039Z,13.08
2022-10-18T00:41:04.046Z,13.07
2022-10-18T00:42:04.057Z,13.10
2022-10-18T01:00:04.544Z,13.19
2022-10-18T01:01:04.208Z,13.19
2022-10-18T01:02:04.262Z,13.19
2022-10-18T01:03:04.224Z,13.16
2022-10-18T01:04:04.228Z,13.15
2022-10-18T01:05:04.239Z,13.14
2022-10-18T01:06:04.252Z,13.11
2022-10-18T01:07:04.255Z,13.11
2022-10-18T01:08:04.261Z,13.09
2022-10-18T01:09:04.266Z,13.07
2022-10-18T01:10:04.275Z,13.07
2022-10-18T01:11:04.281Z,13.09
2022-10-18T01:12:04.288Z,13.11
2022-10-18T01:13:04.292Z,13.12
2022-10-18T01:14:04.302Z,13.14
2022-10-18T01:15:04.304Z,13.14
2022-10-18T01:16:04.311Z,13.14
2022-10-18T01:17:04.321Z,13.14
2022-10-18T01:18:04.329Z,13.13
2022-10-18T01:19:04.335Z,13.12
2022-10-18T01:20:04.351Z,13.10
2022-10-18T01:21:04.348Z,13.10
2022-10-18T01:22:04.356Z,13.08
2022-10-18T01:23:04.367Z,13.09
2022-10-18T01:24:04.374Z,13.10
2022-10-18T01:25:04.388Z,13.09
2022-10-18T01:26:04.396Z,13.07
2022-10-18T01:27:04.412Z,13.09
2022-10-18T01:28:04.417Z,13.10
2022-10-18T01:29:04.470Z,13.13
2022-10-18T01:30:04.445Z,13.18
2022-10-18T01:31:04.438Z,13.20
2022-10-18T01:32:04.448Z,13.22
2022-10-18T01:33:04.457Z,13.25
2022-10-18T01:34:04.471Z,13.29
2022-10-18T01:35:04.469Z,13.30
2022-10-18T01:36:04.478Z,13.30
2022-10-18T01:37:04.489Z,13.30
2022-10-18T01:38:04.498Z,13.33
2022-10-18T01:39:04.505Z,13.31
2022-10-18T01:40:04.518Z,13.31
2022-10-18T01:41:04.519Z,13.32
2022-10-18T01:42:04.533Z,13.35
2022-10-18T01:43:04.540Z,13.34
2022-10-18T01:44:04.547Z,13.36
2022-10-18T01:45:04.558Z,13.36
2022-10-18T01:46:04.563Z,13.38
2022-10-18T01:47:04.582Z,13.41
2022-10-18T01:48:04.590Z,13.44
2022-10-18T01:49:04.603Z,13.49
2022-10-18T01:50:04.615Z,13.51
2022-10-18T01:51:04.617Z,13.51
2022-10-18T01:52:04.653Z,13.49
2022-10-18T01:53:04.635Z,13.47
2022-10-18T01:54:04.641Z,13.43
2022-10-18T01:55:04.651Z,13.37
2022-10-18T01:56:04.655Z,13.33
2022-10-18T01:57:04.668Z,13.30
2022-10-18T01:58:04.672Z,13.26
2022-10-18T01:59:04.687Z,13.25
2022-10-18T02:00:04.689Z,13.23
2022-10-18T02:01:04.726Z,13.22
2022-10-18T02:02:04.700Z,13.23
2022-10-18T02:03:04.713Z,13.25
2022-10-18T02:04:04.718Z,13.26
2022-10-18T02:05:04.724Z,13.27
2022-10-18T02:06:04.734Z,13.27
2022-10-18T02:07:04.732Z,13.27
2022-10-18T02:08:19.159Z,13.26
2022-10-18T02:09:04.760Z,13.27
2022-10-18T02:10:04.827Z,13.26
2022-10-18T02:11:04.778Z,13.27
2022-10-18T02:12:04.788Z,13.28
2022-10-18T02:13:04.821Z,13.29
2022-10-18T02:14:04.808Z,13.29
2022-10-18T02:15:04.812Z,13.26
2022-10-18T02:16:04.823Z,13.25
2022-10-18T02:17:04.829Z,13.26
2022-10-18T02:18:04.841Z,13.28
2022-10-18T02:19:04.843Z,13.28
2022-10-18T02:20:04.855Z,13.24
2022-10-18T02:21:04.859Z,13.22
2022-10-18T02:22:04.873Z,13.17
2022-10-18T02:23:04.883Z,13.13
2022-10-18T02:24:04.891Z,13.10
2022-10-18T02:25:04.901Z,13.06
2022-10-18T02:26:04.911Z,13.05
2022-10-18T02:27:04.919Z,13.01
2022-10-18T02:28:04.929Z,12.97
2022-10-18T02:29:04.940Z,12.94
2022-10-18T02:30:04.947Z,12.92
2022-10-18T02:31:04.960Z,12.90
2022-10-18T02:32:04.965Z,12.89
2022-10-18T02:33:04.977Z,12.84
2022-10-18T02:34:04.983Z,12.84
2022-10-18T02:35:04.995Z,12.82
2022-10-18T02:36:05.001Z,12.81
2022-10-18T02:37:05.007Z,12.79
2022-10-18T02:38:05.019Z,12.78
2022-10-18T02:39:05.028Z,12.75
2022-10-18T02:40:05.059Z,12.74
2022-10-18T02:41:05.049Z,12.76
2022-10-18T02:42:05.058Z,12.74
2022-10-18T02:43:05.067Z,12.70
2022-10-18T02:44:05.070Z,12.69
2022-10-18T02:45:05.082Z,12.66
2022-10-18T02:46:05.094Z,12.66
2022-10-18T02:47:05.102Z,12.65
2022-10-18T02:48:05.111Z,12.70
2022-10-18T02:49:05.117Z,12.72
2022-10-18T02:50:05.127Z,12.74
2022-10-18T02:51:05.151Z,12.75
2022-10-18T02:52:05.149Z,12.75
2022-10-18T02:53:05.162Z,12.76
2022-10-18T02:54:05.164Z,12.79
2022-10-18T02:55:05.180Z,12.76
2022-10-18T02:56:05.202Z,12.73
2022-10-18T02:57:05.189Z,12.73
2022-10-18T02:58:05.201Z,12.72
2022-10-18T02:59:05.210Z,12.72
2022-10-18T03:00:05.217Z,12.74
2022-10-18T03:01:05.226Z,12.72
2022-10-18T03:02:05.235Z,12.73
2022-10-18T03:03:05.249Z,12.70
2022-10-18T03:04:05.255Z,12.69
2022-10-18T03:05:05.259Z,12.66
2022-10-18T03:06:05.274Z,12.65
2022-10-18T03:07:05.280Z,12.64
2022-10-18T03:08:05.287Z,12.63
2022-10-18T03:09:05.296Z,12.58
2022-10-18T03:10:05.306Z,12.56
2022-10-18T03:11:05.317Z,12.53
2022-10-18T03:12:05.328Z,12.49
2022-10-18T03:13:05.334Z,12.49
2022-10-18T03:14:05.343Z,12.47
2022-10-18T03:15:05.350Z,12.44
2022-10-18T03:16:05.355Z,12.44
2022-10-18T03:17:05.371Z,12.42
2022-10-18T03:18:05.380Z,12.40
2022-10-18T03:19:05.387Z,12.40
2022-10-18T03:20:05.394Z,12.39
2022-10-18T03:21:05.400Z,12.40
2022-10-18T03:22:05.411Z,12.37
2022-10-18T03:23:05.421Z,12.37
2022-10-18T03:24:05.429Z,12.36
2022-10-18T03:25:05.439Z,12.36
2022-10-18T03:26:05.446Z,12.34
2022-10-18T03:27:05.451Z,12.35
2022-10-18T03:28:05.460Z,12.34
2022-10-18T03:29:05.558Z,12.32
2022-10-18T03:30:05.483Z,12.33
2022-10-18T03:31:05.488Z,12.32
2022-10-18T03:32:05.498Z,12.29
2022-10-18T03:33:05.504Z,12.27
2022-10-18T03:34:05.512Z,12.27
2022-10-18T03:35:05.520Z,12.26
2022-10-18T03:36:05.527Z,12.28
2022-10-18T03:37:05.594Z,12.28
2022-10-18T03:38:05.542Z,12.30
2022-10-18T03:39:05.551Z,12.32
2022-10-18T03:40:05.561Z,12.34
2022-10-18T03:41:05.569Z,12.40
2022-10-18T03:42:05.578Z,12.44
2022-10-18T03:43:05.592Z,12.47
2022-10-18T03:44:05.604Z,12.50
2022-10-18T03:45:05.616Z,12.51
2022-10-18T03:46:05.626Z,12.54
2022-10-18T03:47:05.642Z,12.55
2022-10-18T03:48:05.650Z,12.61
2022-10-18T03:49:05.655Z,12.65
2022-10-18T03:50:05.670Z,12.65
2022-10-18T03:51:05.675Z,12.65
2022-10-18T03:52:05.687Z,12.68
2022-10-18T03:53:05.696Z,12.69
2022-10-18T03:54:05.705Z,12.70
2022-10-18T03:55:05.714Z,12.71
2022-10-18T03:56:05.725Z,12.74
2022-10-18T03:57:05.734Z,12.77
2022-10-18T03:58:05.754Z,12.79
2022-10-18T03:59:05.755Z,12.83
2022-10-18T04:00:05.764Z,12.84
2022-10-18T04:01:05.772Z,12.86
2022-10-18T04:02:05.842Z,12.87
2022-10-18T04:03:05.794Z,12.88
2022-10-18T04:04:05.804Z,12.86
2022-10-18T04:05:05.820Z,12.84
2022-10-18T04:06:05.831Z,12.80
2022-10-18T04:07:05.841Z,12.78
2022-10-18T04:08:05.852Z,12.72
2022-10-18T04:09:07.815Z,12.65
2022-10-18T04:10:05.871Z,12.60
2022-10-18T04:11:05.882Z,12.56
2022-10-18T04:12:05.888Z,12.51
2022-10-18T04:13:05.899Z,12.48
2022-10-18T04:14:05.911Z,12.45
2022-10-18T04:15:05.915Z,12.41
2022-10-18T04:16:05.920Z,12.36
2022-10-18T04:17:05.934Z,12.33
2022-10-18T04:18:05.942Z,12.30
2022-10-18T04:19:05.953Z,12.27
2022-10-18T04:20:05.965Z,12.26
2022-10-18T04:21:05.998Z,12.26
2022-10-18T04:22:05.987Z,12.25
2022-10-18T04:23:05.995Z,12.26
2022-10-18T04:24:06.000Z,12.26
2022-10-18T04:25:06.006Z,12.27
2022-10-18T04:26:06.017Z,12.29
2022-10-18T04:27:06.028Z,12.31
2022-10-18T04:28:06.036Z,12.33
2022-10-18T04:29:06.073Z,12.36
2022-10-18T04:30:06.052Z,12.38
2022-10-18T04:31:06.057Z,12.40
2022-10-18T04:32:06.066Z,12.39
2022-10-18T04:33:06.074Z,12.40
2022-10-18T04:34:06.093Z,12.44
2022-10-18T04:35:06.100Z,12.46
2022-10-18T04:36:06.114Z,12.46
2022-10-18T04:37:06.123Z,12.46
2022-10-18T04:38:06.134Z,12.48
2022-10-18T04:39:06.147Z,12.47
2022-10-18T04:40:06.153Z,12.47
2022-10-18T04:41:06.162Z,12.44
2022-10-18T04:42:06.171Z,12.45
2022-10-18T04:43:06.183Z,12.46
2022-10-18T04:44:06.191Z,12.43
2022-10-18T04:45:06.204Z,12.42
2022-10-18T04:46:06.214Z,12.40
2022-10-18T04:47:06.226Z,12.40
2022-10-18T04:48:06.237Z,12.39
2022-10-18T04:49:06.246Z,12.39
2022-10-18T04:50:06.261Z,12.39
2022-10-18T04:51:06.270Z,12.42
2022-10-18T04:52:06.281Z,12.44
2022-10-18T04:53:06.286Z,12.47
2022-10-18T04:54:06.301Z,12.48
2022-10-18T04:55:06.308Z,12.50
2022-10-18T04:56:06.320Z,12.51
2022-10-18T04:57:06.333Z,12.55
2022-10-18T04:58:06.338Z,12.57
2022-10-18T04:59:06.349Z,12.60
2022-10-18T05:00:06.360Z,12.63
2022-10-18T05:01:06.371Z,12.64
2022-10-18T05:02:06.385Z,12.66
2022-10-18T05:03:06.395Z,12.69
2022-10-18T05:04:06.408Z,12.71
2022-10-18T05:05:08.104Z,12.73
2022-10-18T05:06:06.435Z,12.73
2022-10-18T05:07:06.437Z,12.74
2022-10-18T05:08:06.442Z,12.74
2022-10-18T05:09:06.444Z,12.76
2022-10-18T05:10:06.449Z,12.77
2022-10-18T05:11:06.524Z,12.75
2022-10-18T05:12:06.478Z,12.77
2022-10-18T05:13:06.484Z,12.77
2022-10-18T05:14:06.490Z,12.78
2022-10-18T05:15:06.501Z,12.80
2022-10-18T05:16:06.507Z,12.81
2022-10-18T05:17:06.522Z,12.82
2022-10-18T05:18:06.535Z,12.82
2022-10-18T05:19:06.542Z,12.82
2022-10-18T05:20:06.584Z,12.86
2022-10-18T05:21:06.557Z,12.84
2022-10-18T05:22:06.566Z,12.82
2022-10-18T05:23:06.579Z,12.84
2022-10-18T05:24:06.588Z,12.86
2022-10-18T05:25:06.595Z,12.91
2022-10-18T05:26:06.599Z,12.90
2022-10-18T05:27:06.611Z,12.94
2022-10-18T05:28:10.720Z,12.99
2022-10-18T05:29:06.748Z,13.01
2022-10-18T05:30:06.642Z,13.04
2022-10-18T05:31:06.650Z,13.05
2022-10-18T05:32:06.662Z,13.07
2022-10-18T05:33:06.675Z,13.10
2022-10-18T05:34:06.686Z,13.12
2022-10-18T05:35:06.698Z,13.10
2022-10-18T05:36:06.710Z,13.10
2022-10-18T05:37:06.718Z,13.12
2022-10-18T05:38:06.721Z,13.11
2022-10-18T05:39:06.733Z,13.11
2022-10-18T05:40:06.738Z,13.11
2022-10-18T05:41:06.757Z,13.12
2022-10-18T05:42:06.755Z,13.09
2022-10-18T05:43:06.767Z,13.08
2022-10-18T05:44:06.791Z,13.08
2022-10-18T05:45:06.788Z,13.08
2022-10-18T05:46:09.293Z,13.02
2022-10-18T05:47:06.818Z,13.04
2022-10-18T05:48:06.815Z,13.05
2022-10-18T05:49:06.827Z,13.05
2022-10-18T05:50:06.828Z,13.08
2022-10-18T05:51:06.837Z,13.10
2022-10-18T05:52:06.848Z,13.12
2022-10-18T05:53:12.243Z,13.11
2022-10-18T05:54:06.859Z,13.12
2022-10-18T05:55:06.872Z,13.13
2022-10-18T05:56:06.887Z,13.14
2022-10-18T05:57:06.885Z,13.13
2022-10-18T05:58:06.893Z,13.16
2022-10-18T05:59:06.916Z,13.15
2022-10-18T06:00:06.916Z,13.10
2022-10-18T06:01:06.922Z,13.05
2022-10-18T06:02:06.999Z,13.05
2022-10-18T06:03:06.938Z,13.02
2022-10-18T06:04:06.943Z,13.01
2022-10-18T06:05:06.962Z,13.02
2022-10-18T06:06:06.975Z,13.01
2022-10-18T06:07:06.993Z,12.97
2022-10-18T06:08:09.444Z,12.98
2022-10-18T06:09:06.988Z,12.94
2022-10-18T06:10:06.995Z,12.92
2022-10-18T06:11:07.039Z,12.87
2022-10-18T06:12:07.020Z,12.85
2022-10-18T06:13:07.042Z,12.84
2022-10-18T06:14:07.043Z,12.81
2022-10-18T06:15:07.060Z,12.84
2022-10-18T06:16:07.074Z,12.82
2022-10-18T06:17:07.063Z,12.83
2022-10-18T06:18:07.089Z,12.83
2022-10-18T06:19:07.101Z,12.85
2022-10-18T06:20:07.096Z,12.83
2022-10-18T06:21:07.107Z,12.88
2022-10-18T06:22:07.118Z,12.88
2022-10-18T06:23:07.129Z,12.87
2022-10-18T06:24:07.140Z,12.84
2022-10-18T06:25:07.144Z,12.90
2022-10-18T06:26:07.156Z,12.92
2022-10-18T06:27:07.168Z,12.96
2022-10-18T06:28:08.902Z,12.98
2022-10-18T06:29:07.240Z,13.01
2022-10-18T06:30:07.195Z,13.02
2022-10-18T06:31:07.214Z,13.03
2022-10-18T06:32:07.216Z,13.04
2022-10-18T06:33:07.220Z,13.07
2022-10-18T06:34:07.235Z,13.09
2022-10-18T06:35:07.233Z,13.11
2022-10-18T18:49:32.202Z,12.71
2022-10-18T18:50:31.373Z,12.71
2022-10-18T18:51:31.375Z,12.68
2022-10-18T18:52:31.708Z,12.69
2022-10-18T18:53:31.386Z,12.68
2022-10-18T18:54:31.392Z,12.69
2022-10-18T18:55:31.396Z,12.67
2022-10-18T18:56:31.405Z,12.68
2022-10-18T18:57:31.699Z,12.70
2022-10-18T18:58:31.416Z,12.71
2022-10-18T18:59:31.427Z,12.70
2022-10-18T19:00:31.432Z,12.68
2022-10-18T19:01:31.528Z,12.67
2022-10-18T19:02:31.443Z,12.66
2022-10-18T19:03:31.451Z,12.68
2022-10-18T19:04:31.459Z,12.65
2022-10-18T19:05:31.464Z,12.61
2022-10-18T19:06:31.471Z,12.60
2022-10-18T19:07:31.699Z,12.59
2022-10-18T19:08:31.482Z,12.58
2022-10-18T19:09:31.489Z,12.58
2022-10-18T19:10:31.495Z,12.59
2022-10-18T19:11:31.500Z,12.58
2022-10-18T19:12:31.506Z,12.57
2022-10-18T19:13:31.514Z,12.53
2022-10-18T19:14:31.523Z,12.51
2022-10-18T19:15:31.527Z,12.50
2022-10-18T19:16:31.538Z,12.48
2022-10-18T19:17:31.861Z,12.47
2022-10-18T19:18:31.549Z,12.44
2022-10-18T19:19:31.553Z,12.39
2022-10-18T19:20:31.557Z,12.35
2022-10-18T19:21:31.563Z,12.31
2022-10-18T19:22:31.569Z,12.28
2022-10-18T19:23:31.618Z,12.27
2022-10-18T19:24:31.586Z,12.23
2022-10-18T19:25:31.589Z,12.17
2022-10-18T19:26:31.597Z,12.13
2022-10-18T19:27:31.786Z,12.09
2022-10-18T19:28:31.645Z,12.06
2022-10-18T19:29:31.617Z,12.03
2022-10-18T19:30:31.623Z,11.99
2022-10-18T19:31:31.640Z,11.97
2022-10-18T19:32:31.638Z,11.99
2022-10-18T19:33:35.600Z,11.98
2022-10-18T19:34:31.653Z,11.98
2022-10-18T19:35:31.661Z,11.99
2022-10-18T19:36:31.675Z,11.98
2022-10-18T19:37:32.003Z,11.98
2022-10-18T19:38:31.693Z,11.99
2022-10-18T19:39:31.695Z,12.00
2022-10-18T19:40:31.702Z,12.02
2022-10-18T19:41:31.717Z,12.03
2022-10-18T19:42:31.867Z,12.05
2022-10-18T19:43:31.719Z,12.05
2022-10-18T19:44:31.729Z,12.06
2022-10-18T19:45:31.742Z,12.07
2022-10-18T19:46:31.755Z,12.08
2022-10-18T19:47:31.762Z,12.09
2022-10-18T19:48:31.769Z,12.11
2022-10-18T19:49:31.776Z,12.11
2022-10-18T19:50:31.783Z,12.15
2022-10-18T19:51:31.790Z,12.15
2022-10-18T19:52:32.145Z,12.15
2022-10-18T19:53:31.807Z,12.15
2022-10-18T19:54:31.815Z,12.15
2022-10-18T19:55:31.822Z,12.17
2022-10-18T19:56:31.828Z,12.17
2022-10-18T19:57:31.843Z,12.13
2022-10-18T19:58:31.847Z,12.12
2022-10-18T19:59:31.937Z,12.10
2022-10-18T20:00:31.877Z,12.09
2022-10-18T20:01:31.958Z,12.09
2022-10-18T20:02:32.100Z,12.08
2022-10-18T20:03:31.878Z,12.11
2022-10-18T20:04:31.887Z,12.10
2022-10-18T20:05:31.891Z,12.08
2022-10-18T20:06:31.899Z,12.09
2022-10-18T20:07:31.907Z,12.09
2022-10-18T20:08:31.961Z,12.08
2022-10-18T20:09:31.915Z,12.09
2022-10-18T20:10:31.923Z,12.06
2022-10-18T20:11:31.929Z,12.06
2022-10-18T20:12:32.265Z,12.06
2022-10-18T20:13:31.942Z,12.06
2022-10-18T20:14:31.950Z,12.05
2022-10-18T20:15:31.959Z,12.02
2022-10-18T20:16:31.961Z,11.98
2022-10-18T20:17:31.971Z,11.94
2022-10-18T20:18:31.977Z,11.94
2022-10-18T20:19:31.982Z,11.90
2022-10-18T20:20:31.990Z,11.88
2022-10-18T20:21:31.996Z,11.82
2022-10-18T20:22:32.418Z,11.77
2022-10-18T20:23:32.009Z,11.73
2022-10-18T20:24:32.017Z,11.67
2022-10-18T20:25:32.027Z,11.61
2022-10-18T20:26:32.033Z,11.54
2022-10-18T20:27:32.195Z,11.49
2022-10-18T20:28:32.076Z,11.44
2022-10-18T20:29:32.050Z,11.41
2022-10-18T20:30:32.052Z,11.36
2022-10-18T20:31:32.060Z,11.33
2022-10-18T20:32:32.067Z,11.32
2022-10-18T20:33:32.073Z,11.31
2022-10-18T20:34:32.081Z,11.28
2022-10-18T20:35:32.086Z,11.28
2022-10-18T20:36:32.099Z,11.27
2022-10-18T20:37:32.354Z,11.24
2022-10-18T20:38:32.111Z,11.22
2022-10-18T20:39:32.117Z,11.20
2022-10-18T20:40:32.127Z,11.16
2022-10-18T20:41:32.133Z,11.14
2022-10-18T20:42:32.139Z,11.12
2022-10-18T20:43:32.145Z,11.09
2022-10-18T20:44:32.153Z,11.04
2022-10-18T20:45:32.162Z,11.02
2022-10-18T20:46:32.170Z,11.00
2022-10-18T20:47:32.358Z,10.93
2022-10-18T20:48:32.178Z,10.85
2022-10-18T20:49:32.186Z,10.83
2022-10-18T20:50:32.192Z,10.78
2022-10-18T20:51:32.201Z,10.72
2022-10-18T20:52:32.207Z,10.68
2022-10-18T20:53:32.219Z,10.63
2022-10-18T20:54:32.228Z,10.59
2022-10-18T20:55:32.234Z,10.56
2022-10-18T20:56:32.244Z,10.51
2022-10-18T20:57:32.941Z,10.46
2022-10-18T20:58:32.255Z,10.42
2022-10-18T20:59:32.259Z,10.37
2022-10-18T21:00:32.265Z,10.36
2022-10-18T21:01:32.357Z,10.32
2022-10-18T21:02:32.278Z,10.33
2022-10-18T21:03:32.285Z,10.31
2022-10-18T21:04:32.302Z,10.29
2022-10-18T21:05:32.299Z,10.29
2022-10-18T21:06:32.300Z,10.28
2022-10-18T21:07:32.571Z,10.24
2022-10-18T21:08:32.323Z,10.23
2022-10-18T21:09:32.327Z,10.21
2022-10-18T21:10:32.337Z,10.19
2022-10-18T21:11:32.344Z,10.17
2022-10-18T21:12:32.569Z,10.15
2022-10-18T21:13:32.359Z,10.15
2022-10-18T21:14:32.366Z,10.13
2022-10-18T21:15:32.373Z,10.13
2022-10-18T21:16:32.382Z,10.12
2022-10-18T21:17:32.389Z,10.10
2022-10-18T21:18:32.395Z,10.09
2022-10-18T21:19:32.408Z,10.08
2022-10-18T21:20:32.416Z,10.09
2022-10-18T21:21:32.423Z,10.07
2022-10-18T21:22:32.691Z,10.10
2022-10-18T21:23:32.442Z,10.11
2022-10-18T21:24:32.447Z,10.17
2022-10-18T21:25:32.459Z,10.19
2022-10-18T21:26:32.466Z,10.23
2022-10-18T21:27:32.474Z,10.27
2022-10-18T21:28:32.498Z,10.30
2022-10-18T21:29:32.485Z,10.29
2022-10-18T21:30:32.493Z,10.30
2022-10-18T21:31:32.499Z,10.32
2022-10-18T21:32:32.699Z,10.35
2022-10-18T21:33:32.512Z,10.37
2022-10-18T21:34:32.517Z,10.41
2022-10-18T21:35:32.527Z,10.42
2022-10-18T21:36:32.533Z,10.41
2022-10-18T21:37:32.540Z,10.38
2022-10-18T21:38:32.548Z,10.34
2022-10-18T21:39:32.556Z,10.31
2022-10-18T21:40:32.579Z,10.29
2022-10-18T21:41:32.586Z,10.31
2022-10-18T21:42:32.863Z,10.30
2022-10-18T21:43:32.600Z,10.30
2022-10-18T21:44:32.608Z,10.30
2022-10-18T21:45:32.617Z,10.33
2022-10-18T21:46:32.631Z,10.35
2022-10-18T21:47:32.654Z,10.40
2022-10-18T21:48:32.645Z,10.42
2022-10-18T21:49:32.650Z,10.44
2022-10-18T21:50:32.658Z,10.49
2022-10-18T21:51:32.668Z,10.53
2022-10-18T21:52:33.040Z,10.57
2022-10-18T21:53:32.679Z,10.59
2022-10-18T21:54:32.687Z,10.60
2022-10-18T21:55:32.697Z,10.63
2022-10-18T21:56:32.703Z,10.62
2022-10-18T21:57:32.856Z,10.61
2022-10-18T21:58:32.720Z,10.59
2022-10-18T21:59:32.730Z,10.58
2022-10-18T22:00:32.737Z,10.55
2022-10-18T22:01:32.863Z,10.54
2022-10-18T22:02:33.006Z,10.53
2022-10-18T22:03:32.757Z,10.54
2022-10-18T22:04:32.765Z,10.54
2022-10-18T22:05:32.774Z,10.57
2022-10-18T22:06:32.842Z,10.59
2022-10-18T22:07:33.181Z,10.63
2022-10-18T22:08:32.796Z,10.65
2022-10-18T22:09:32.802Z,10.67
2022-10-18T22:10:32.810Z,10.71
2022-10-18T22:11:32.817Z,10.73
2022-10-18T22:12:32.821Z,10.77
2022-10-18T22:13:32.830Z,10.77
2022-10-18T22:14:32.834Z,10.80
2022-10-18T22:15:32.891Z,10.81
2022-10-18T22:16:32.851Z,10.83
2022-10-18T22:17:33.098Z,10.85
2022-10-18T22:18:32.866Z,10.85
2022-10-18T22:19:32.877Z,10.89
2022-10-18T22:20:32.883Z,10.90
2022-10-18T22:21:32.886Z,10.90
2022-10-18T22:22:32.893Z,10.88
2022-10-18T22:23:32.911Z,10.86
2022-10-18T22:24:32.966Z,10.84
2022-10-18T22:25:32.919Z,10.81
2022-10-18T22:26:32.930Z,10.78
2022-10-18T22:27:33.304Z,10.78
2022-10-18T22:28:32.989Z,10.76
2022-10-18T22:29:32.958Z,10.79
2022-10-18T22:30:32.962Z,10.76
2022-10-18T22:31:32.969Z,10.71
2022-10-18T22:32:32.974Z,10.68
2022-10-18T22:33:33.025Z,10.60
2022-10-18T22:34:32.992Z,10.52
2022-10-18T22:35:32.999Z,10.45
2022-10-18T22:36:33.006Z,10.42
2022-10-18T22:37:33.240Z,10.38
2022-10-18T22:38:33.026Z,10.35
2022-10-18T22:39:33.032Z,10.32
2022-10-18T22:40:33.041Z,10.28
2022-10-18T22:41:33.051Z,10.28
2022-10-18T22:43:33.065Z,10.27
2022-10-18T22:44:33.074Z,10.28
2022-10-18T22:45:33.082Z,10.27
2022-10-18T22:46:33.095Z,10.24
2022-10-18T22:47:33.380Z,10.21
2022-10-18T22:48:33.106Z,10.18
2022-10-18T22:49:33.110Z,10.15
2022-10-18T22:50:33.128Z,10.15
2022-10-18T22:51:33.124Z,10.17
2022-10-18T22:52:33.324Z,10.17
2022-10-18T22:53:33.147Z,10.20
2022-10-18T22:54:33.151Z,10.19
2022-10-18T22:55:33.158Z,10.20
2022-10-18T22:56:33.163Z,10.20
2022-10-18T22:57:33.172Z,10.21
2022-10-18T22:58:33.181Z,10.21
2022-10-18T22:59:33.191Z,10.18
2022-10-18T23:00:33.332Z,10.08
2022-10-18T23:01:33.203Z,10.01
2022-10-18T23:02:33.534Z,9.88
2022-10-18T23:03:33.220Z,9.84
2022-10-18T23:04:33.236Z,9.75
2022-10-18T23:05:33.241Z,9.71
2022-10-18T23:06:33.242Z,9.62
2022-10-18T23:07:33.253Z,9.58
2022-10-18T23:08:33.260Z,9.57
2022-10-18T23:09:33.323Z,9.58
2022-10-18T23:10:33.274Z,9.56
2022-10-18T23:11:33.286Z,9.57
2022-10-18T23:12:33.501Z,9.57
2022-10-18T23:13:34.955Z,9.59
2022-10-18T23:14:33.314Z,9.61
2022-10-18T23:15:33.587Z,9.62
2022-10-18T23:16:33.329Z,9.61
2022-10-18T23:17:33.526Z,9.62
2022-10-18T23:18:33.480Z,9.58
2022-10-18T23:19:33.357Z,9.56
2022-10-18T23:20:33.362Z,9.53
2022-10-18T23:21:33.367Z,9.50
2022-10-18T23:22:33.541Z,9.46
2022-10-18T23:23:33.386Z,9.40
2022-10-18T23:24:33.394Z,9.37
2022-10-18T23:25:33.402Z,9.36
2022-10-18T23:26:33.414Z,9.34
2022-10-18T23:27:33.470Z,9.33
2022-10-18T23:28:33.458Z,9.34
2022-10-18T23:29:33.430Z,9.36
2022-10-18T23:30:33.436Z,9.38
2022-10-18T23:31:33.444Z,9.43
2022-10-18T23:32:33.603Z,9.50
2022-10-18T23:33:33.461Z,9.51
2022-10-18T23:34:33.468Z,9.52
2022-10-18T23:35:33.476Z,9.52
2022-10-18T23:36:33.593Z,9.51
2022-10-18T23:37:33.804Z,9.51
2022-10-18T23:38:33.507Z,9.51
2022-10-18T23:39:33.516Z,9.51
2022-10-18T23:40:33.523Z,9.52
2022-10-18T23:41:33.531Z,9.55
2022-10-18T23:42:33.542Z,9.58
2022-10-18T23:43:33.550Z,9.63
2022-10-18T23:44:33.555Z,9.66
2022-10-18T23:45:33.572Z,9.70
2022-10-18T23:46:33.565Z,9.73
2022-10-18T23:47:33.834Z,9.77
2022-10-18T23:48:33.580Z,9.78
2022-10-18T23:49:33.596Z,9.80
2022-10-18T23:50:33.596Z,9.82
2022-10-18T23:51:33.604Z,9.84
2022-10-18T23:52:33.620Z,9.86
2022-10-18T23:53:33.614Z,9.87
2022-10-18T23:54:33.653Z,9.88
2022-10-18T23:55:33.632Z,9.89
2022-10-18T23:56:33.638Z,9.93
2022-10-18T23:57:33.899Z,9.94
2022-10-18T23:58:33.653Z,9.98
2022-10-18T23:59:33.659Z,10.01
